Time;durP1;ratioP1;P1;durP2;ratioP2;P2;SDS_P1;SDS_P2;PMS_P1;PMS_P2;Temp;Humidity;BMP_temperature;BMP_pressure;BME280_temperature;BME280_humidity;BME280_pressure;Samples;Min_cycle;Max_cycle;Signal;HPM_P1;HPM_P2
2023/04/29 00:01:48;;;;;;;2.33;0.75;;;18.30;76.50;;;;;;2458080;55;21486;-74
2023/04/29 00:04:19;;;;;;;2.40;0.80;;;18.30;76.50;;;;;;2453569;55;21425;-74
2023/04/29 00:06:45;;;;;;;1.35;0.62;;;18.30;76.40;;;;;;2453800;55;20993;-73
2023/04/29 00:09:12;;;;;;;1.50;0.70;;;18.30;76.60;;;;;;2453089;55;20953;-74
2023/04/29 00:11:38;;;;;;;1.50;0.70;;;18.30;76.60;;;;;;2453193;55;20968;-76
2023/04/29 00:14:05;;;;;;;1.98;0.50;;;18.30;76.60;;;;;;2453391;55;21033;-74
2023/04/29 00:16:32;;;;;;;3.22;1.60;;;18.20;76.50;;;;;;2236948;56;21061;-74
2023/04/29 00:18:58;;;;;;;2.67;1.33;;;18.30;76.60;;;;;;2232616;56;20973;-73
2023/04/29 00:21:26;;;;;;;2.87;1.48;;;18.30;76.60;;;;;;2453380;55;21001;-73
2023/04/29 00:23:52;;;;;;;1.90;0.90;;;18.30;76.60;;;;;;2230982;56;21963;-73
2023/04/29 00:26:18;;;;;;;2.42;1.00;;;18.30;76.60;;;;;;2453495;55;21811;-73
2023/04/29 00:28:45;;;;;;;1.45;0.82;;;18.20;76.50;;;;;;2453799;55;20969;-74
2023/04/29 00:31:12;;;;;;;1.27;0.60;;;18.20;76.50;;;;;;2230947;56;20945;-75
2023/04/29 00:33:39;;;;;;;3.42;0.98;;;18.20;76.50;;;;;;2230986;56;20953;-74
2023/04/29 00:36:06;;;;;;;1.80;0.80;;;18.20;76.50;;;;;;2230698;56;21038;-73
2023/04/29 00:38:32;;;;;;;2.05;0.75;;;18.20;76.40;;;;;;2231189;56;21044;-74
2023/04/29 00:40:58;;;;;;;3.20;0.82;;;18.20;76.50;;;;;;2450950;55;20986;-74
2023/04/29 00:43:25;;;;;;;1.95;0.98;;;18.20;76.50;;;;;;2452873;55;21009;-74
2023/04/29 00:45:53;;;;;;;1.42;0.68;;;18.20;76.50;;;;;;2453530;55;21026;-73
2023/04/29 00:48:19;;;;;;;1.73;0.90;;;18.20;76.50;;;;;;2231445;56;20953;-73
2023/04/29 00:50:45;;;;;;;1.60;0.65;;;18.20;76.40;;;;;;2452348;55;21017;-75
2023/04/29 00:53:12;;;;;;;2.10;0.70;;;18.20;76.40;;;;;;2231232;56;21064;-75
2023/04/29 00:55:38;;;;;;;2.03;0.88;;;18.20;76.40;;;;;;2451675;55;21513;-74
2023/04/29 00:58:05;;;;;;;3.75;0.70;;;18.20;76.40;;;;;;2453084;55;20968;-76
2023/04/29 01:00:32;;;;;;;1.83;0.80;;;18.20;76.40;;;;;;2231320;56;21096;-73
2023/04/29 01:02:58;;;;;;;1.42;0.70;;;18.10;76.40;;;;;;2452266;55;21471;-73
2023/04/29 01:05:25;;;;;;;3.25;0.80;;;18.10;76.40;;;;;;2229636;56;21978;-75
2023/04/29 01:08:16;;;;;;;2.72;0.90;;;18.10;76.40;;;;;;2231101;56;20937;-73
2023/04/29 01:11:08;;;;;;;2.25;0.80;;;18.10;76.00;;;;;;2231177;56;21092;-71
2023/04/29 01:13:49;;;;;;;2.20;0.70;;;18.10;75.80;;;;;;2453948;55;21024;-73
2023/04/29 01:16:38;;;;;;;2.20;0.80;;;18.10;76.30;;;;;;2452996;55;21431;-74
2023/04/29 01:26:08;;;;;;;1.50;0.65;;;18.10;76.00;;;;;;2231081;56;20969;-73
2023/04/29 01:30:26;;;;;;;1.62;0.50;;;18.10;76.00;;;;;;2238149;56;21742;-73
2023/04/29 01:33:57;;;;;;;2.30;0.60;;;18.10;75.70;;;;;;2231236;56;21004;-73
2023/04/29 01:40:05;;;;;;;2.03;0.90;;;18.10;76.20;;;;;;2231254;56;21981;-73
2023/04/29 01:43:00;;;;;;;1.20;0.60;;;18.00;76.00;;;;;;2232041;56;21318;-73
2023/04/29 01:45:27;;;;;;;2.92;0.68;;;18.00;75.70;;;;;;2454003;55;21021;-75
2023/04/29 01:48:00;;;;;;;1.55;0.70;;;18.00;76.40;;;;;;2453772;55;21652;-73
2023/04/29 01:50:26;;;;;;;3.12;0.65;;;17.90;76.30;;;;;;2453476;55;22370;-73
2023/04/29 01:52:53;;;;;;;1.60;0.70;;;17.90;76.50;;;;;;2453693;55;20992;-74
2023/04/29 01:55:20;;;;;;;1.90;0.65;;;17.90;76.50;;;;;;2454188;55;20945;-75
2023/04/29 01:57:46;;;;;;;1.52;0.70;;;17.90;76.60;;;;;;2230833;56;21897;-74
2023/04/29 02:00:12;;;;;;;2.10;0.75;;;17.90;76.60;;;;;;2231457;56;21001;-73
2023/04/29 02:02:39;;;;;;;1.48;0.60;;;17.90;76.50;;;;;;2453977;55;21084;-74
2023/04/29 02:05:09;;;;;;;3.92;0.70;;;17.90;76.40;;;;;;2453738;55;20953;-73
2023/04/29 02:07:36;;;;;;;1.80;0.80;;;17.90;76.30;;;;;;2236547;56;21033;-74
2023/04/29 02:10:02;;;;;;;1.40;0.80;;;17.90;76.50;;;;;;2459871;55;21013;-74
2023/04/29 02:12:28;;;;;;;2.28;0.88;;;17.90;76.50;;;;;;2232032;56;20985;-73
2023/04/29 02:14:56;;;;;;;1.92;0.88;;;17.90;76.40;;;;;;2231205;56;21564;-74
2023/04/29 02:17:22;;;;;;;2.47;0.75;;;17.90;76.30;;;;;;2453819;55;20937;-72
2023/04/29 02:19:49;;;;;;;2.35;1.20;;;17.80;76.20;;;;;;2454012;55;20930;-73
2023/04/29 02:22:15;;;;;;;2.70;1.37;;;17.80;76.20;;;;;;2231408;56;20961;-73
2023/04/29 02:24:45;;;;;;;2.25;1.10;;;17.80;76.20;;;;;;2230964;56;21415;-74
2023/04/29 02:27:11;;;;;;;1.85;0.90;;;17.80;76.20;;;;;;2230768;56;20985;-73
2023/04/29 02:29:37;;;;;;;2.20;1.00;;;17.80;76.30;;;;;;2453300;55;21021;-75
2023/04/29 02:32:04;;;;;;;2.03;0.93;;;17.80;76.40;;;;;;2231289;56;21064;-78
2023/04/29 02:34:34;;;;;;;2.05;1.00;;;17.80;76.40;;;;;;2454005;55;21385;-75
2023/04/29 02:37:00;;;;;;;2.08;0.93;;;17.80;76.30;;;;;;2455797;55;21810;-73
2023/04/29 02:39:26;;;;;;;2.00;0.80;;;17.80;76.30;;;;;;2455544;55;20933;-74
2023/04/29 02:41:54;;;;;;;1.60;0.80;;;17.80;76.20;;;;;;2453138;55;21012;-75
2023/04/29 02:44:20;;;;;;;1.77;0.80;;;17.80;76.20;;;;;;2231449;56;21056;-73
2023/04/29 02:46:47;;;;;;;3.20;0.88;;;17.80;76.20;;;;;;2235829;56;20937;-73
2023/04/29 02:49:13;;;;;;;2.40;0.68;;;17.80;76.00;;;;;;2233046;56;21041;-75
2023/04/29 02:51:40;;;;;;;2.20;0.75;;;17.80;76.10;;;;;;2231419;56;21450;-73
2023/04/29 02:54:06;;;;;;;2.25;0.95;;;17.70;76.00;;;;;;2231484;56;21870;-74
2023/04/29 02:56:33;;;;;;;1.65;0.90;;;17.70;76.00;;;;;;2457157;55;21097;-72
2023/04/29 02:59:00;;;;;;;1.75;0.80;;;17.70;76.10;;;;;;2454143;55;21874;-76
2023/04/29 03:01:26;;;;;;;1.77;0.90;;;17.70;76.10;;;;;;2453944;55;21038;-75
2023/04/29 03:03:53;;;;;;;2.85;0.80;;;17.80;76.20;;;;;;2454260;55;21019;-73
2023/04/29 03:06:20;;;;;;;2.30;0.80;;;17.70;76.10;;;;;;2457521;55;20984;-74
2023/04/29 03:08:46;;;;;;;1.60;0.70;;;17.70;76.10;;;;;;2233026;56;20968;-72
2023/04/29 03:11:12;;;;;;;1.87;0.82;;;17.70;76.20;;;;;;2231688;56;21096;-73
2023/04/29 03:13:38;;;;;;;1.80;0.80;;;17.70;76.10;;;;;;2231451;56;20954;-74
2023/04/29 03:16:06;;;;;;;2.40;0.70;;;17.60;76.00;;;;;;2236077;56;20973;-73
2023/04/29 03:18:32;;;;;;;4.60;0.80;;;17.60;76.10;;;;;;2232526;56;21009;-73
2023/04/29 03:20:58;;;;;;;2.25;1.20;;;17.60;76.10;;;;;;2453480;55;20952;-75
2023/04/29 03:23:25;;;;;;;2.25;1.10;;;17.60;76.20;;;;;;2453818;55;20988;-74
2023/04/29 03:25:54;;;;;;;1.83;0.82;;;17.60;76.30;;;;;;2231656;56;20970;-75
2023/04/29 03:28:20;;;;;;;2.85;1.20;;;17.60;76.30;;;;;;2453736;55;20949;-75
2023/04/29 03:30:47;;;;;;;2.30;1.10;;;17.60;76.30;;;;;;2453895;55;20993;-73
2023/04/29 03:33:13;;;;;;;3.00;1.40;;;17.60;76.30;;;;;;2453662;55;21715;-73
2023/04/29 03:35:39;;;;;;;2.35;1.10;;;17.60;76.30;;;;;;2231234;56;20937;-73
2023/04/29 03:38:06;;;;;;;2.53;1.30;;;17.60;76.30;;;;;;2453620;55;20987;-73
2023/04/29 03:40:32;;;;;;;2.17;1.23;;;17.50;76.10;;;;;;2453875;55;21045;-76
2023/04/29 03:42:59;;;;;;;2.67;1.37;;;17.60;76.30;;;;;;2453700;55;20949;-72
2023/04/29 03:45:26;;;;;;;2.42;1.30;;;17.50;76.30;;;;;;2231214;56;21816;-74
2023/04/29 03:47:53;;;;;;;3.10;1.62;;;17.50;76.30;;;;;;2452574;55;25463;-76
2023/04/29 03:50:19;;;;;;;2.70;1.40;;;17.60;76.40;;;;;;2453222;55;21054;-73
2023/04/29 03:52:46;;;;;;;2.35;1.30;;;17.60;76.40;;;;;;2457732;55;21128;-73
2023/04/29 03:55:12;;;;;;;2.47;1.20;;;17.60;76.40;;;;;;2232037;56;20965;-73
2023/04/29 03:57:40;;;;;;;4.28;1.30;;;17.50;76.20;;;;;;2231182;56;21005;-74
2023/04/29 04:00:08;;;;;;;2.40;1.30;;;17.60;76.20;;;;;;2453815;55;21068;-75
2023/04/29 04:02:36;;;;;;;2.37;1.37;;;17.60;76.20;;;;;;2453625;55;20973;-73
2023/04/29 04:05:03;;;;;;;2.58;1.15;;;17.60;76.10;;;;;;2231267;56;20993;-75
2023/04/29 04:07:29;;;;;;;3.40;1.27;;;17.50;75.90;;;;;;2453231;55;20941;-74
2023/04/29 04:09:56;;;;;;;2.25;1.27;;;17.50;75.90;;;;;;2230423;56;21021;-75
2023/04/29 04:12:22;;;;;;;2.50;1.30;;;17.50;76.00;;;;;;2231045;56;21505;-73
2023/04/29 04:14:48;;;;;;;2.50;1.27;;;17.50;75.90;;;;;;2229911;56;21041;-76
2023/04/29 04:17:15;;;;;;;3.03;1.30;;;17.50;75.70;;;;;;2230887;56;21005;-73
2023/04/29 04:19:41;;;;;;;2.75;1.40;;;17.50;75.70;;;;;;2453612;55;21009;-74
2023/04/29 04:22:07;;;;;;;3.15;1.52;;;17.50;75.50;;;;;;2231557;56;20985;-73
2023/04/29 04:24:34;;;;;;;2.50;1.40;;;17.40;75.30;;;;;;2453686;55;21374;-75
2023/04/29 04:27:07;;;;;;;2.40;1.37;;;17.40;75.20;;;;;;2453068;55;20949;-72
2023/04/29 04:29:34;;;;;;;2.50;1.40;;;17.40;75.10;;;;;;2232506;56;20953;-73
2023/04/29 04:32:00;;;;;;;2.70;1.23;;;17.30;75.20;;;;;;2453729;55;21060;-73
2023/04/29 04:34:26;;;;;;;3.75;1.20;;;17.30;75.00;;;;;;2231233;56;20965;-73
2023/04/29 04:36:52;;;;;;;2.70;1.17;;;17.30;74.90;;;;;;2230912;56;20961;-73
2023/04/29 04:39:20;;;;;;;2.70;1.30;;;17.30;74.90;;;;;;2231364;56;21286;-73
2023/04/29 04:41:46;;;;;;;2.22;1.12;;;17.20;74.60;;;;;;2235351;56;21383;-73
2023/04/29 04:44:15;;;;;;;2.20;1.12;;;17.20;74.70;;;;;;2237439;56;20973;-73
2023/04/29 04:46:42;;;;;;;2.30;1.17;;;17.20;74.80;;;;;;2453609;55;21092;-73
2023/04/29 04:49:08;;;;;;;2.22;1.12;;;17.10;74.80;;;;;;2453592;55;20998;-74
2023/04/29 04:51:36;;;;;;;2.80;1.20;;;17.10;74.80;;;;;;2231090;56;21008;-73
2023/04/29 04:54:02;;;;;;;2.60;1.20;;;17.10;74.90;;;;;;2454042;55;20949;-73
2023/04/29 04:56:28;;;;;;;2.92;1.25;;;17.10;74.90;;;;;;2236464;56;20933;-75
2023/04/29 04:58:55;;;;;;;2.62;1.40;;;17.00;74.70;;;;;;2456370;55;20973;-72
2023/04/29 05:01:21;;;;;;;3.00;1.27;;;17.00;74.70;;;;;;2231491;56;20977;-73
2023/04/29 05:03:48;;;;;;;2.75;1.12;;;17.00;74.70;;;;;;2453843;55;20968;-75
2023/04/29 05:06:15;;;;;;;2.75;1.02;;;17.00;74.70;;;;;;2453722;55;20965;-73
2023/04/29 05:08:41;;;;;;;3.05;1.55;;;16.90;74.70;;;;;;2236313;56;21076;-76
2023/04/29 05:11:16;;;;;;;2.75;1.20;;;16.90;74.80;;;;;;2456387;55;21863;-73
2023/04/29 05:13:43;;;;;;;2.50;1.30;;;16.90;74.60;;;;;;2453971;55;21034;-73
2023/04/29 05:16:09;;;;;;;2.80;1.45;;;16.90;74.80;;;;;;2454247;55;20965;-73
2023/04/29 05:18:36;;;;;;;3.20;1.80;;;16.90;75.00;;;;;;2231441;56;20957;-76
2023/04/29 05:21:02;;;;;;;3.15;1.48;;;16.90;75.00;;;;;;2453588;55;20977;-72
2023/04/29 05:23:28;;;;;;;3.58;1.92;;;16.90;75.20;;;;;;2230750;56;20980;-73
2023/04/29 05:25:55;;;;;;;2.60;1.33;;;16.90;75.30;;;;;;2453088;55;21025;-73
2023/04/29 05:28:22;;;;;;;3.25;1.27;;;16.80;75.20;;;;;;2238436;55;20988;-73
2023/04/29 05:30:51;;;;;;;3.10;1.60;;;16.80;75.30;;;;;;2453819;55;20985;-73
2023/04/29 05:33:18;;;;;;;2.80;1.40;;;16.80;75.20;;;;;;2231411;56;20997;-73
2023/04/29 05:35:44;;;;;;;3.60;1.55;;;16.90;75.40;;;;;;2453198;55;21397;-73
2023/04/29 05:38:10;;;;;;;3.17;1.48;;;16.90;75.50;;;;;;2454104;55;21480;-72
2023/04/29 05:40:37;;;;;;;2.60;1.45;;;16.90;75.40;;;;;;2456791;55;21089;-74
2023/04/29 05:43:03;;;;;;;2.47;1.37;;;16.90;75.40;;;;;;2230857;56;20964;-73
2023/04/29 05:45:30;;;;;;;2.90;1.35;;;16.90;75.40;;;;;;2455519;55;21040;-73
2023/04/29 05:47:56;;;;;;;3.65;1.40;;;16.90;75.40;;;;;;2455034;55;21056;-73
2023/04/29 05:50:23;;;;;;;3.08;1.50;;;16.90;75.30;;;;;;2457305;55;20990;-74
2023/04/29 05:52:50;;;;;;;2.92;1.65;;;16.90;75.30;;;;;;2455206;55;21005;-72
2023/04/29 05:55:17;;;;;;;4.93;1.70;;;16.90;75.20;;;;;;2231636;56;21840;-73
2023/04/29 05:57:44;;;;;;;2.70;1.30;;;16.90;75.10;;;;;;2453975;55;20964;-73
2023/04/29 06:00:10;;;;;;;3.30;1.40;;;16.90;75.10;;;;;;2453948;55;21045;-73
2023/04/29 06:02:41;;;;;;;2.75;1.40;;;16.90;75.20;;;;;;2453552;55;21755;-75
2023/04/29 06:05:14;;;;;;;3.03;1.50;;;16.90;75.20;;;;;;2453673;55;21085;-73
2023/04/29 06:07:41;;;;;;;2.60;1.30;;;16.90;75.30;;;;;;2237504;56;20968;-75
2023/04/29 06:10:08;;;;;;;2.62;1.40;;;16.90;75.30;;;;;;2453778;55;20977;-72
2023/04/29 06:12:34;;;;;;;3.60;2.15;;;16.90;75.30;;;;;;2230318;56;21017;-73
2023/04/29 06:15:01;;;;;;;3.53;1.85;;;16.90;75.30;;;;;;2452404;55;21066;-73
2023/04/29 06:17:28;;;;;;;3.05;1.83;;;16.90;75.30;;;;;;2228634;56;21001;-71
2023/04/29 06:19:55;;;;;;;2.80;1.50;;;16.90;75.40;;;;;;2453745;55;20997;-73
2023/04/29 06:22:22;;;;;;;3.50;2.10;;;16.90;75.60;;;;;;2232032;56;21048;-74
2023/04/29 06:24:49;;;;;;;4.12;1.83;;;16.90;75.60;;;;;;2231422;56;20973;-74
2023/04/29 06:27:16;;;;;;;3.35;2.12;;;17.00;75.60;;;;;;2454196;55;20937;-77
2023/04/29 06:29:42;;;;;;;3.78;2.20;;;17.00;75.50;;;;;;2237560;56;21041;-74
2023/04/29 06:32:15;;;;;;;4.40;2.10;;;17.00;75.40;;;;;;2454286;55;20985;-76
2023/04/29 06:34:41;;;;;;;4.07;2.28;;;17.00;75.40;;;;;;2453471;55;21632;-74
2023/04/29 06:37:07;;;;;;;4.40;2.42;;;17.00;75.40;;;;;;2453448;55;20956;-75
2023/04/29 06:39:36;;;;;;;4.87;2.70;;;17.10;75.40;;;;;;2453328;55;21005;-75
2023/04/29 06:42:04;;;;;;;3.58;2.15;;;17.00;74.90;;;;;;2452826;55;21912;-75
2023/04/29 06:44:31;;;;;;;3.72;2.22;;;17.00;75.00;;;;;;2446154;55;21085;-74
2023/04/29 06:46:57;;;;;;;3.70;2.10;;;17.00;75.00;;;;;;2232132;56;21448;-77
2023/04/29 06:49:25;;;;;;;3.50;2.25;;;17.00;75.10;;;;;;2231547;56;20933;-74
2023/04/29 06:51:51;;;;;;;3.92;2.30;;;17.00;75.20;;;;;;2232457;56;20992;-75
2023/04/29 06:54:18;;;;;;;4.07;2.10;;;17.00;75.40;;;;;;2231784;56;20965;-73
2023/04/29 06:56:44;;;;;;;4.15;2.15;;;17.00;75.50;;;;;;2230987;56;20961;-74
2023/04/29 06:59:11;;;;;;;4.00;2.35;;;17.00;76.50;;;;;;2453288;55;21005;-73
2023/04/29 07:01:39;;;;;;;4.15;2.37;;;17.10;76.20;;;;;;2453088;55;21001;-74
2023/04/29 07:04:08;;;;;;;4.95;2.83;;;17.10;76.40;;;;;;2453373;55;21398;-74
2023/04/29 07:06:35;;;;;;;3.95;2.62;;;17.10;76.60;;;;;;2453136;55;20953;-75
2023/04/29 07:09:02;;;;;;;5.07;2.95;;;17.20;76.70;;;;;;2455325;55;21485;-73
2023/04/29 07:11:28;;;;;;;4.10;2.80;;;17.20;76.50;;;;;;2455179;55;20985;-75
2023/04/29 07:13:55;;;;;;;3.53;2.20;;;17.30;76.60;;;;;;2455560;55;20981;-73
2023/04/29 07:16:21;;;;;;;3.83;2.50;;;17.30;76.50;;;;;;2456980;55;20988;-73
2023/04/29 07:18:49;;;;;;;5.07;2.65;;;17.30;76.60;;;;;;2457183;55;20957;-76
2023/04/29 07:21:15;;;;;;;4.55;2.50;;;17.40;76.60;;;;;;2231922;56;21303;-76
2023/04/29 07:23:42;;;;;;;4.18;2.67;;;17.50;76.90;;;;;;2455634;55;20964;-74
2023/04/29 07:26:12;;;;;;;4.93;3.10;;;17.50;76.90;;;;;;2232794;56;21287;-74
2023/04/29 07:28:39;;;;;;;5.28;3.15;;;17.60;76.50;;;;;;2231097;56;20941;-73
2023/04/29 07:31:07;;;;;;;5.50;2.90;;;17.60;76.70;;;;;;2454590;55;21073;-75
2023/04/29 07:33:34;;;;;;;4.12;2.65;;;17.70;76.60;;;;;;2453765;55;21016;-76
2023/04/29 07:36:02;;;;;;;5.03;3.35;;;17.70;76.60;;;;;;2453894;55;20961;-75
2023/04/29 07:38:29;;;;;;;5.22;3.03;;;17.80;76.60;;;;;;2453808;55;21506;-74
2023/04/29 07:40:56;;;;;;;5.45;2.87;;;17.80;76.60;;;;;;2453663;55;21056;-73
2023/04/29 07:43:22;;;;;;;4.50;3.08;;;17.80;76.70;;;;;;2232184;56;20934;-73
2023/04/29 07:45:49;;;;;;;4.93;3.28;;;17.90;77.10;;;;;;2453746;55;20937;-74
2023/04/29 07:48:16;;;;;;;5.35;3.05;;;17.90;77.20;;;;;;2241541;56;21901;-74
2023/04/29 07:50:43;;;;;;;5.00;3.05;;;18.00;77.40;;;;;;2233550;56;20961;-73
2023/04/29 07:53:09;;;;;;;4.50;2.83;;;18.00;77.30;;;;;;2454077;55;20945;-74
2023/04/29 07:55:37;;;;;;;4.03;2.87;;;18.10;77.20;;;;;;2454015;55;20977;-75
2023/04/29 07:58:04;;;;;;;4.32;2.78;;;18.20;77.20;;;;;;2231694;56;21021;-73
2023/04/29 08:00:30;;;;;;;6.45;3.05;;;18.20;77.10;;;;;;2455664;55;21008;-73
2023/04/29 08:02:57;;;;;;;5.12;3.28;;;18.30;77.00;;;;;;2454002;55;21028;-74
2023/04/29 08:05:23;;;;;;;4.90;2.67;;;18.30;76.70;;;;;;2455878;55;20974;-74
2023/04/29 08:07:50;;;;;;;4.25;2.83;;;18.30;76.30;;;;;;2454954;55;20973;-75
2023/04/29 08:10:21;;;;;;;5.22;3.03;;;18.30;75.90;;;;;;2232123;56;20945;-73
2023/04/29 08:12:48;;;;;;;5.22;2.92;;;18.30;75.60;;;;;;2453400;55;21061;-74
2023/04/29 08:15:14;;;;;;;4.95;2.92;;;18.30;75.40;;;;;;2231687;56;20961;-73
2023/04/29 08:17:41;;;;;;;5.50;3.00;;;18.30;75.20;;;;;;2453585;55;20961;-74
2023/04/29 08:20:08;;;;;;;5.03;3.33;;;18.30;75.20;;;;;;2231416;56;21017;-73
2023/04/29 08:22:34;;;;;;;4.72;3.00;;;18.40;75.60;;;;;;2453585;55;21533;-76
2023/04/29 08:25:02;;;;;;;5.05;2.97;;;18.30;75.70;;;;;;2453182;55;20981;-74
2023/04/29 08:27:28;;;;;;;4.93;3.08;;;18.30;76.00;;;;;;2231404;56;20961;-73
2023/04/29 08:29:55;;;;;;;6.18;3.30;;;18.40;76.20;;;;;;2458298;55;21774;-74
2023/04/29 08:32:23;;;;;;;4.70;3.20;;;18.40;76.20;;;;;;2454313;55;21104;-74
2023/04/29 08:34:52;;;;;;;5.28;3.50;;;18.50;76.20;;;;;;2237458;56;20948;-74
2023/04/29 08:37:19;;;;;;;5.00;3.10;;;18.50;75.80;;;;;;2231884;56;20940;-74
2023/04/29 08:39:46;;;;;;;6.68;3.50;;;18.50;76.10;;;;;;2231350;56;20945;-76
2023/04/29 08:42:13;;;;;;;5.93;3.50;;;18.50;75.70;;;;;;2454370;55;20998;-75
2023/04/29 08:44:40;;;;;;;6.03;3.62;;;18.60;75.50;;;;;;2231638;56;20957;-74
2023/04/29 08:47:06;;;;;;;5.25;3.80;;;18.60;75.40;;;;;;2456640;55;21411;-76
2023/04/29 08:49:36;;;;;;;4.68;3.17;;;18.60;75.10;;;;;;2238646;56;20952;-74
2023/04/29 08:52:03;;;;;;;5.35;3.33;;;18.60;75.00;;;;;;2453985;55;21000;-74
2023/04/29 08:54:31;;;;;;;6.15;3.83;;;18.60;75.10;;;;;;2231308;56;20959;-74
2023/04/29 08:56:58;;;;;;;4.53;3.10;;;18.60;75.00;;;;;;2453762;55;20965;-73
2023/04/29 08:59:24;;;;;;;4.62;3.03;;;18.60;75.10;;;;;;2231757;56;20965;-74
2023/04/29 09:01:51;;;;;;;6.32;3.47;;;18.70;75.20;;;;;;2453348;55;21021;-73
2023/04/29 09:07:50;;;;;;;6.30;3.25;;;18.70;75.20;;;;;;2454258;55;21411;-73
2023/04/29 09:10:17;;;;;;;4.18;2.60;;;18.80;74.10;;;;;;2458671;55;21140;-75
2023/04/29 09:12:44;;;;;;;5.47;3.67;;;18.80;75.60;;;;;;2456628;55;20976;-76
2023/04/29 09:15:11;;;;;;;5.00;3.47;;;18.90;75.50;;;;;;2458221;55;20969;-74
2023/04/29 09:17:46;;;;;;;6.28;3.85;;;18.90;75.30;;;;;;2458756;55;20962;-76
2023/04/29 09:20:25;;;;;;;4.97;3.70;;;18.90;74.70;;;;;;2454113;55;21025;-73
2023/04/29 09:22:56;;;;;;;5.03;3.35;;;18.90;74.30;;;;;;2231700;56;21946;-74
2023/04/29 09:25:23;;;;;;;4.72;3.42;;;18.90;75.10;;;;;;2454499;55;21000;-75
2023/04/29 09:27:50;;;;;;;5.50;3.30;;;18.90;75.50;;;;;;2230890;56;21849;-74
2023/04/29 09:30:19;;;;;;;5.43;3.70;;;19.00;75.80;;;;;;2457209;55;21017;-74
2023/04/29 09:33:02;;;;;;;5.20;3.22;;;19.00;75.90;;;;;;2237366;56;20969;-73
2023/04/29 09:35:28;;;;;;;4.78;3.20;;;19.10;76.40;;;;;;2231725;56;21056;-75
2023/04/29 09:38:16;;;;;;;4.70;3.12;;;19.20;77.00;;;;;;2457334;55;21021;-73
2023/04/29 09:40:42;;;;;;;5.10;3.03;;;19.20;75.30;;;;;;2453460;55;21033;-75
2023/04/29 09:43:23;;;;;;;4.55;3.10;;;19.30;76.70;;;;;;2454141;55;20945;-73
2023/04/29 09:45:50;;;;;;;3.83;2.70;;;19.40;76.40;;;;;;2458209;55;21104;-73
2023/04/29 09:48:17;;;;;;;4.10;2.70;;;19.40;76.10;;;;;;2432903;56;20980;-73
2023/04/29 09:50:45;;;;;;;4.03;2.50;;;19.50;75.90;;;;;;2238311;56;21013;-76
2023/04/29 09:53:27;;;;;;;5.43;2.45;;;19.50;75.80;;;;;;2454262;55;20936;-72
2023/04/29 09:56:02;;;;;;;3.90;2.35;;;19.60;75.80;;;;;;2453057;55;21596;-73
2023/04/29 09:58:35;;;;;;;4.07;2.53;;;19.60;75.30;;;;;;2458335;55;20980;-75
2023/04/29 10:01:02;;;;;;;4.55;2.33;;;19.70;75.90;;;;;;2453824;55;20992;-73
2023/04/29 10:03:33;;;;;;;4.00;2.60;;;19.80;76.40;;;;;;2454003;55;21851;-76
2023/04/29 10:06:01;;;;;;;3.80;2.42;;;19.80;75.70;;;;;;2231890;56;21013;-72
2023/04/29 10:08:31;;;;;;;4.03;2.45;;;19.90;75.90;;;;;;2453915;55;20969;-73
2023/04/29 10:11:01;;;;;;;3.87;2.30;;;19.90;74.60;;;;;;2455144;55;21056;-74
2023/04/29 10:13:28;;;;;;;3.22;2.08;;;19.90;74.40;;;;;;2456001;55;20986;-73
2023/04/29 10:18:11;;;;;;;3.40;2.10;;;20.00;74.80;;;;;;2230893;56;20965;-73
2023/04/29 10:20:39;;;;;;;3.50;2.08;;;20.00;73.00;;;;;;2453243;55;20961;-73
2023/04/29 10:23:05;;;;;;;3.72;1.95;;;20.10;75.60;;;;;;2456919;55;21009;-73
2023/04/29 10:25:34;;;;;;;3.97;2.33;;;20.10;75.50;;;;;;2454888;55;20973;-74
2023/04/29 10:28:03;;;;;;;4.32;2.33;;;20.10;74.90;;;;;;2231658;56;20972;-73
2023/04/29 10:30:29;;;;;;;5.05;2.55;;;20.10;74.90;;;;;;2453935;55;20953;-74
2023/04/29 10:32:56;;;;;;;4.12;2.50;;;20.20;74.70;;;;;;2452645;55;21718;-74
2023/04/29 10:35:24;;;;;;;4.35;2.30;;;20.20;74.50;;;;;;2453910;55;21910;-75
2023/04/29 10:37:51;;;;;;;3.95;2.37;;;20.20;74.70;;;;;;2230623;56;20973;-73
2023/04/29 10:40:25;;;;;;;4.30;2.75;;;20.20;74.70;;;;;;2221345;56;21076;-75
2023/04/29 10:42:52;;;;;;;4.05;2.75;;;20.20;74.20;;;;;;2433273;55;20997;-75
2023/04/29 10:45:31;;;;;;;4.22;2.85;;;20.20;74.10;;;;;;2454634;55;20934;-74
2023/04/29 10:48:31;;;;;;;4.32;2.75;;;20.30;72.90;;;;;;2240429;56;20980;-74
2023/04/29 10:51:01;;;;;;;5.65;2.37;;;20.30;72.40;;;;;;2455570;55;21498;-74
2023/04/29 10:53:28;;;;;;;3.75;2.42;;;20.30;73.60;;;;;;2454657;55;20945;-74
2023/04/29 10:55:58;;;;;;;4.68;2.78;;;20.30;74.00;;;;;;2453505;55;21445;-74
2023/04/29 11:00:25;;;;;;;4.32;2.70;;;20.30;73.70;;;;;;2454796;55;21001;-74
2023/04/29 11:02:53;;;;;;;3.33;2.28;;;20.30;72.20;;;;;;2231146;56;20973;-74
2023/04/29 11:05:35;;;;;;;4.55;2.65;;;20.40;73.80;;;;;;2231561;56;20969;-74
2023/04/29 11:08:11;;;;;;;4.00;2.42;;;20.40;72.40;;;;;;2232304;56;21021;-75
2023/04/29 11:10:41;;;;;;;4.62;2.85;;;20.40;72.40;;;;;;2232480;56;20981;-73
2023/04/29 11:13:27;;;;;;;4.20;2.90;;;20.40;73.00;;;;;;2232170;56;21076;-73
2023/04/29 11:16:07;;;;;;;4.50;3.15;;;20.40;71.90;;;;;;2232687;56;21020;-75
2023/04/29 11:18:34;;;;;;;4.28;2.70;;;20.40;72.30;;;;;;2455247;55;20937;-73
2023/04/29 11:21:39;;;;;;;4.45;2.97;;;20.40;73.20;;;;;;2455875;55;21029;-74
2023/04/29 11:24:06;;;;;;;5.20;2.70;;;20.40;71.40;;;;;;2232043;56;21887;-75
2023/04/29 11:26:35;;;;;;;5.18;2.95;;;20.30;73.20;;;;;;2232541;56;20976;-75
2023/04/29 11:29:01;;;;;;;3.90;2.53;;;20.40;72.80;;;;;;2231735;56;20965;-75
2023/04/29 11:31:31;;;;;;;5.22;2.83;;;20.30;73.20;;;;;;2458514;55;20921;-76
2023/04/29 11:33:58;;;;;;;4.78;3.10;;;20.40;72.70;;;;;;2453893;55;21008;-72
2023/04/29 11:36:24;;;;;;;4.20;2.70;;;20.40;72.90;;;;;;2454562;55;21684;-73
2023/04/29 11:38:51;;;;;;;5.35;3.55;;;20.40;72.80;;;;;;2454038;55;20977;-73
2023/04/29 11:41:21;;;;;;;4.53;2.90;;;20.40;72.70;;;;;;2454258;55;21016;-75
2023/04/29 11:43:55;;;;;;;5.47;3.55;;;20.30;71.80;;;;;;2453290;55;20976;-73
2023/04/29 11:46:21;;;;;;;3.80;2.65;;;20.40;71.20;;;;;;2454591;55;21001;-77
2023/04/29 11:48:47;;;;;;;5.18;3.05;;;20.30;72.00;;;;;;2453497;55;20965;-73
2023/04/29 11:51:18;;;;;;;4.43;3.22;;;20.30;72.10;;;;;;2454661;55;21033;-76
2023/04/29 11:53:44;;;;;;;5.37;3.47;;;20.20;71.60;;;;;;2453743;55;21028;-73
2023/04/29 11:56:10;;;;;;;4.78;3.17;;;20.20;72.20;;;;;;2232176;56;21375;-75
2023/04/29 11:58:37;;;;;;;8.32;4.07;;;20.20;72.20;;;;;;2460008;55;21035;-79
2023/04/29 12:01:03;;;;;;;5.75;3.45;;;20.20;72.30;;;;;;2457991;55;20929;-73
2023/04/29 12:03:30;;;;;;;5.97;3.83;;;20.20;72.20;;;;;;2231647;56;20952;-73
2023/04/29 12:05:57;;;;;;;6.55;4.32;;;20.20;72.20;;;;;;2452609;55;21782;-77
2023/04/29 12:08:27;;;;;;;6.18;3.75;;;20.20;72.20;;;;;;2232349;56;20968;-75
2023/04/29 12:10:57;;;;;;;5.57;3.67;;;20.20;72.00;;;;;;2236509;56;21048;-75
2023/04/29 12:13:39;;;;;;;6.93;3.40;;;20.20;71.60;;;;;;2456228;55;21006;-73
2023/04/29 12:16:05;;;;;;;4.97;3.47;;;20.20;72.20;;;;;;2453757;55;20988;-73
2023/04/29 12:18:32;;;;;;;5.65;3.40;;;20.20;72.40;;;;;;2454200;55;21453;-73
2023/04/29 12:20:58;;;;;;;4.78;3.08;;;20.20;72.50;;;;;;2453146;55;21012;-76
2023/04/29 12:23:26;;;;;;;4.60;2.78;;;20.20;72.80;;;;;;2453985;55;20969;-76
2023/04/29 12:25:54;;;;;;;4.72;2.85;;;20.20;72.80;;;;;;2453050;55;21024;-75
2023/04/29 12:28:20;;;;;;;4.50;2.78;;;20.30;73.20;;;;;;2231276;56;21917;-77
2023/04/29 12:30:46;;;;;;;5.30;3.33;;;20.30;73.40;;;;;;2230617;56;22171;-72
2023/04/29 12:33:25;;;;;;;4.62;2.95;;;20.40;73.50;;;;;;2454355;55;20909;-74
2023/04/29 12:35:54;;;;;;;4.50;2.53;;;20.40;72.20;;;;;;2453146;55;21493;-76
2023/04/29 12:38:27;;;;;;;5.07;3.00;;;20.50;73.40;;;;;;2454702;55;20974;-75
2023/04/29 12:40:54;;;;;;;4.30;2.70;;;20.50;72.80;;;;;;2231371;56;21041;-74
2023/04/29 12:43:28;;;;;;;4.35;2.62;;;20.60;73.20;;;;;;2454696;55;20946;-76
2023/04/29 12:46:00;;;;;;;4.55;2.85;;;20.50;72.70;;;;;;2433014;55;21005;-74
2023/04/29 12:48:33;;;;;;;5.32;3.05;;;20.60;72.90;;;;;;2236292;56;21009;-76
2023/04/29 12:51:00;;;;;;;6.28;3.20;;;20.70;72.60;;;;;;2456286;55;21005;-74
2023/04/29 12:53:27;;;;;;;4.57;3.08;;;20.70;73.20;;;;;;2458642;55;20945;-74
2023/04/29 12:55:54;;;;;;;5.55;3.08;;;20.80;73.00;;;;;;2237622;56;21535;-72
2023/04/29 12:58:20;;;;;;;5.15;2.97;;;20.80;72.60;;;;;;2454349;55;21053;-75
2023/04/29 13:00:46;;;;;;;4.87;3.30;;;20.80;72.50;;;;;;2231539;56;21891;-72
2023/04/29 13:03:13;;;;;;;6.53;3.95;;;20.80;72.60;;;;;;2231782;56;21032;-72
2023/04/29 13:05:44;;;;;;;5.15;3.67;;;20.80;72.60;;;;;;2453764;55;21525;-73
2023/04/29 13:08:11;;;;;;;5.05;3.33;;;20.90;72.30;;;;;;2453828;55;21056;-74
2023/04/29 13:10:37;;;;;;;5.55;3.58;;;20.90;72.50;;;;;;2232085;56;20992;-74
2023/04/29 13:13:04;;;;;;;5.40;3.35;;;20.90;72.60;;;;;;2453526;55;20925;-73
2023/04/29 13:15:32;;;;;;;7.62;3.90;;;20.90;72.60;;;;;;2232277;56;21038;-75